Commodore Goodwill — C6NU8 — position and weather

sailwx.info

Track history (hours):
 
Tides and Currents Weather Stations Pressure Air Temp Water Temp Dewpoint Dewpoint Depression Visibility Wind Speed Wind Dir Waves Ship Positions

Commodore Goodwill

Operator: Condor Marine Services

Last reported at 2017-Aug-20 13:30 UTC. Time now 2017-Aug-20 13:40 UTC.
Position N 50°49' W 001°06'.

Length 126 m; draft 5 m.

Type: Ship (hazmat cat C). MMSI: 309536000.

Date/timePositionNaut miles runAvg speedWind from/ knotsBaromVisibWave heightAir tempDewpointWater temp
2017-Aug-20 13:30N 50°49' W 001°06'0 0.0
2017-Aug-20 13:00N 50°49' W 001°06'0 0.0
2017-Aug-20 12:31N 50°49' W 001°06'0 0.0
2017-Aug-20 12:01N 50°49' W 001°06'0 0.0
2017-Aug-20 11:31N 50°49' W 001°06'0 0.0
2017-Aug-20 11:01N 50°49' W 001°06'0 0.0
2017-Aug-20 10:31N 50°49' W 001°06'0 0.0
2017-Aug-20 10:00N 50°49' W 001°06'0 0.0
2017-Aug-20 09:30N 50°49' W 001°06'0 0.0
2017-Aug-20 09:00N 50°49' W 001°06'0 0.0
2017-Aug-20 08:30N 50°49' W 001°06'0 0.0
2017-Aug-20 08:00N 50°49' W 001°06'0 0.0
2017-Aug-20 07:31N 50°49' W 001°06'0 0.0
2017-Aug-20 07:00N 50°49' W 001°06'0 0.0
2017-Aug-20 06:30N 50°49' W 001°06'0 0.0
2017-Aug-20 06:00N 50°49' W 001°06'2 4.6
2017-Aug-20 05:31N 50°46' W 001°06'713.1
2017-Aug-20 05:00N 50°41' W 001°01'510.2
2017-Aug-20 04:30N 50°36' W 001°04'4 7.6
2017-Aug-20 04:00N 50°33' W 001°07'5 8.9
2017-Aug-20 03:29N 50°30' W 001°12'32 8.9
2017-Aug-19 23:55N 50°04' W 001°42'4 9.6
2017-Aug-19 23:30N 50°01' W 001°45'510.8
2017-Aug-19 23:00N 49°56' W 001°50'511.0
2017-Aug-19 22:30N 49°52' W 001°54'5 0.2
2017-Aug-18 23:07N 49°48' W 001°59'113.6
2017-Aug-18 23:01N 49°49' W 001°58'714.1
2017-Aug-18 22:30N 49°55' W 001°52'816.2
2017-Aug-18 22:00N 50°02' W 001°45'816.7
2017-Aug-18 21:30N 50°09' W 001°38'2516.0
2017-Aug-18 19:57N 50°29' W 001°15'715.6
2017-Aug-18 19:30N 50°35' W 001°09'815.6
2017-Aug-18 19:00N 50°42' W 001°03'713.8
2017-Aug-18 18:30N 50°48' W 001°07'1 2.0
2017-Aug-18 18:00N 50°49' W 001°06'0 0.0
2017-Aug-18 17:31N 50°49' W 001°06'0 0.0
2017-Aug-18 17:01N 50°49' W 001°06'0 0.0
2017-Aug-18 16:30N 50°49' W 001°06'0 0.0
2017-Aug-18 16:00N 50°49' W 001°06'0 0.0
2017-Aug-18 15:30N 50°49' W 001°06'2 4.0
2017-Aug-18 15:01N 50°47' W 001°06'612.3
2017-Aug-18 14:31N 50°42' W 001°01'1914.6
2017-Aug-18 13:13N 50°26' W 001°17'2815.9
2017-Aug-18 11:26N 50°03' W 001°43'716.2
2017-Aug-18 11:01N 49°57' W 001°49'816.2
2017-Aug-18 10:30N 49°51' W 001°56'4 0.3
2017-Aug-17 23:28N 49°48' W 002°00'817.8
2017-Aug-17 23:00N 49°54' W 001°52'918.6
2017-Aug-17 22:30N 50°03' W 001°45'3618.2
2017-Aug-17 20:33N 50°32' W 001°14'318.6
2017-Aug-17 20:22N 50°35' W 001°10'718.4
2017-Aug-17 20:00N 50°40' W 001°04'714.1
2017-Aug-17 19:31N 50°47' W 001°06'2 3.9
2017-Aug-17 19:01N 50°49' W 001°06'0 0.0
2017-Aug-17 18:31N 50°49' W 001°06'0 0.0
2017-Aug-17 18:01N 50°49' W 001°06'0 0.0
2017-Aug-17 17:30N 50°49' W 001°06'0 0.0
2017-Aug-17 17:00N 50°49' W 001°06'0 0.0
2017-Aug-17 16:30N 50°49' W 001°06'0 0.0
2017-Aug-17 16:00N 50°49' W 001°06'0 0.0
2017-Aug-17 15:30N 50°49' W 001°06'2 4.1
2017-Aug-17 15:00N 50°47' W 001°06'714.4
2017-Aug-17 14:30N 50°40' W 001°05'1219.8
2017-Aug-17 13:55N 50°30' W 001°15'2619.0
2017-Aug-17 12:32N 50°09' W 001°40'118.7
2017-Aug-17 12:28N 50°08' W 001°41'818.4
2017-Aug-17 12:00N 50°01' W 001°49'1018.0
2017-Aug-17 11:26N 49°52' W 001°56'5 0.5
2017-Aug-17 00:25N 49°47' W 001°59'615.7
2017-Aug-17 00:00N 49°52' W 001°53'816.8
2017-Aug-16 23:30N 49°59' W 001°46'917.6
2017-Aug-16 23:01N 50°07' W 001°39'2917.7
2017-Aug-16 21:23N 50°31' W 001°14'718.1
2017-Aug-16 21:00N 50°36' W 001°08'815.8
2017-Aug-16 20:30N 50°44' W 001°04'510.5
2017-Aug-16 20:01N 50°49' W 001°07'1 1.7
2017-Aug-16 19:31N 50°49' W 001°06'0 0.0
2017-Aug-16 19:01N 50°49' W 001°06'0 0.0
2017-Aug-16 18:31N 50°49' W 001°06'0 0.0
2017-Aug-16 18:01N 50°49' W 001°06'0 0.0
2017-Aug-16 17:31N 50°49' W 001°06'0 0.0
2017-Aug-16 17:01N 50°49' W 001°06'1 2.2
2017-Aug-16 16:31N 50°48' W 001°07'714.8
2017-Aug-16 16:01N 50°41' W 001°03'1219.4
2017-Aug-16 15:24N 50°31' W 001°14'1419.5
2017-Aug-16 14:42N 50°20' W 001°26'419.5
2017-Aug-16 14:30N 50°17' W 001°29'1019.7
2017-Aug-16 14:00N 50°09' W 001°37'1020.1
2017-Aug-16 13:30N 50°00' W 001°46'1020.3
2017-Aug-16 13:00N 49°52' W 001°54'1121.3
2017-Aug-16 12:31N 49°43' W 002°04'1920.3
2017-Aug-16 11:33N 49°25' W 002°15'919.4
2017-Aug-16 11:04N 49°16' W 002°20'218.5
2017-Aug-16 10:57N 49°14' W 002°21'715.5
2017-Aug-16 10:30N 49°10' W 002°13'3 0.8
2017-Aug-16 07:03N 49°10' W 002°17'118.4
2017-Aug-16 07:00N 49°10' W 002°18'39 6.3
2017-Aug-16 00:56N 49°47' W 001°60'613.1
2017-Aug-16 00:30N 49°52' W 001°55'714.0
2017-Aug-16 00:00N 49°57' W 001°49'714.7
2017-Aug-15 23:30N 50°03' W 001°42'815.7
2017-Aug-15 23:00N 50°10' W 001°36'1416.2
2017-Aug-15 22:09N 50°22' W 001°25'314.8
2017-Aug-15 21:56N 50°25' W 001°22'715.1
2017-Aug-15 21:30N 50°29' W 001°15'815.8
2017-Aug-15 21:00N 50°36' W 001°08'816.5
2017-Aug-15 20:31N 50°43' W 001°03'611.1
2017-Aug-15 20:00N 50°49' W 001°07'1 1.5
2017-Aug-15 19:30N 50°49' W 001°06'0 0.0
2017-Aug-15 19:00N 50°49' W 001°06'0 0.0
2017-Aug-15 18:30N 50°49' W 001°06'0 0.0
2017-Aug-15 18:00N 50°49' W 001°06'0 0.0
2017-Aug-15 17:30N 50°49' W 001°06'3 5.9
2017-Aug-15 17:01N 50°46' W 001°05'815.0
2017-Aug-15 16:29N 50°38' W 001°06'1017.8
2017-Aug-15 15:55N 50°30' W 001°15'818.5
2017-Aug-15 15:29N 50°23' W 001°22'918.6
2017-Aug-15 15:00N 50°15' W 001°28'1319.2
2017-Aug-15 14:21N 50°04' W 001°39'719.8
2017-Aug-15 14:01N 49°59' W 001°45'1020.3
2017-Aug-15 13:30N 49°51' W 001°55'6 0.4
2017-Aug-14 23:48N 49°46' W 002°01'3 9.5
2017-Aug-14 23:30N 49°49' W 001°58'611.0
2017-Aug-14 23:00N 49°53' W 001°53'713.4
2017-Aug-14 22:30N 49°58' W 001°46'714.0
2017-Aug-14 22:00N 50°02' W 001°38'816.7
2017-Aug-14 21:30N 50°11' W 001°37'816.7
2017-Aug-14 21:01N 50°18' W 001°30'917.3
2017-Aug-14 20:30N 50°24' W 001°21'917.6
2017-Aug-14 20:00N 50°32' W 001°13'918.0
2017-Aug-14 19:30N 50°39' W 001°05'714.6
2017-Aug-14 19:01N 50°46' W 001°06'2 4.9
2017-Aug-14 18:30N 50°49' W 001°06'0 0.0
2017-Aug-14 18:01N 50°49' W 001°06'0 0.0
2017-Aug-14 17:31N 50°49' W 001°06'0 0.0
2017-Aug-14 17:01N 50°49' W 001°06'0 0.0
2017-Aug-14 16:31N 50°49' W 001°06'0 0.0
2017-Aug-14 16:00N 50°49' W 001°06'0 0.0
2017-Aug-14 15:31N 50°49' W 001°06'2 3.2
2017-Aug-14 15:01N 50°47' W 001°07'714.3
2017-Aug-14 14:30N 50°40' W 001°04'815.1
2017-Aug-14 14:00N 50°34' W 001°10'815.3
2017-Aug-14 13:30N 50°27' W 001°16'815.5
2017-Aug-14 13:00N 50°20' W 001°22'917.1
2017-Aug-14 12:30N 50°13' W 001°29'1020.2
2017-Aug-14 12:00N 50°06' W 001°40'1020.6
2017-Aug-14 11:30N 49°57' W 001°49'1021.1
2017-Aug-14 11:00N 49°49' W 001°59'1322.6
2017-Aug-14 10:25N 49°39' W 002°13'820.7
2017-Aug-14 10:00N 49°33' W 002°22'813.1
2017-Aug-14 09:22N 49°27' W 002°32'0 0.0
2017-Aug-14 09:01N 49°27' W 002°32'0 0.1
2017-Aug-14 08:27N 49°27' W 002°32'612.7
2017-Aug-14 08:00N 49°22' W 002°28'917.5
2017-Aug-14 07:28N 49°14' W 002°22'815.0
2017-Aug-14 06:57N 49°10' W 002°12'39 4.5
2017-Aug-13 22:22N 49°48' W 001°59'412.2
2017-Aug-13 22:00N 49°51' W 001°55'612.9
2017-Aug-13 21:31N 49°56' W 001°49'815.5
2017-Aug-13 21:00N 50°03' W 001°43'917.0
2017-Aug-13 20:30N 50°10' W 001°36'1016.9
2017-Aug-13 19:54N 50°19' W 001°27'614.5
2017-Aug-13 19:28N 50°24' W 001°22'613.3
2017-Aug-13 19:00N 50°29' W 001°16'714.0
2017-Aug-13 18:30N 50°35' W 001°10'816.4
2017-Aug-13 18:00N 50°41' W 001°03'714.5
2017-Aug-13 17:30N 50°48' W 001°07'1 2.0
2017-Aug-13 17:00N 50°49' W 001°06'0 0.0
2017-Aug-13 16:30N 50°49' W 001°06'0 0.0
2017-Aug-13 16:00N 50°49' W 001°06'0 0.0
2017-Aug-13 15:30N 50°49' W 001°06'0 0.1
2017-Aug-13 15:00N 50°49' W 001°06'3 6.3
2017-Aug-13 14:31N 50°46' W 001°05'712.9
2017-Aug-13 13:58N 50°39' W 001°08'2 5.1
2017-Aug-13 13:30N 50°36' W 001°08'3911.4
2017-Aug-13 10:06N 50°04' W 001°42'111.3
2017-Aug-13 10:00N 50°03' W 001°43'4 9.0
2017-Aug-13 09:30N 49°59' W 001°46'4 8.4
2017-Aug-13 08:59N 49°56' W 001°50'4 8.4
2017-Aug-13 08:31N 49°53' W 001°54'4 8.3
2017-Aug-13 08:00N 49°49' W 001°58'17 8.7
2017-Aug-13 06:00N 49°34' W 002°10'3 5.8
2017-Aug-13 05:25N 49°31' W 002°12'17 0.6
2017-Aug-11 23:48N 49°47' W 002°01'413.8
2017-Aug-11 23:30N 49°50' W 001°58'714.1
2017-Aug-11 23:00N 49°56' W 001°52'714.5
2017-Aug-11 22:31N 50°02' W 001°48'612.9
2017-Aug-11 22:00N 50°06' W 001°40'713.8
2017-Aug-11 21:30N 50°11' W 001°31'3215.2
2017-Aug-11 19:24N 50°37' W 001°02'614.5
2017-Aug-11 19:00N 50°43' W 001°01'713.5
2017-Aug-11 18:30N 50°48' W 001°07'1 1.9
2017-Aug-11 18:01N 50°49' W 001°06'0 0.0
2017-Aug-11 17:30N 50°49' W 001°06'0 0.0
2017-Aug-11 17:00N 50°49' W 001°06'0 0.0
2017-Aug-11 16:31N 50°49' W 001°06'0 0.0
2017-Aug-11 16:00N 50°49' W 001°06'0 0.0
2017-Aug-11 15:30N 50°49' W 001°06'2 3.3
2017-Aug-11 15:00N 50°47' W 001°06'1111.4
2017-Aug-11 14:00N 50°36' W 001°08'3512.9
2017-Aug-11 11:19N 50°07' W 001°39'515.8
2017-Aug-11 11:00N 50°03' W 001°43'815.9
2017-Aug-11 10:30N 49°56' W 001°49'1019.7
2017-Aug-11 10:00N 49°48' W 001°58'3219.1
2017-Aug-11 08:19N 49°19' W 002°19'9 1.2
2017-Aug-11 01:26N 49°27' W 002°25'2717.4
2017-Aug-10 23:52N 49°48' W 001°60'616.5
2017-Aug-10 23:30N 49°54' W 001°56'816.0
2017-Aug-10 23:00N 50°01' W 001°50'814.8
2017-Aug-10 22:27N 50°07' W 001°41'714.8
2017-Aug-10 22:00N 50°11' W 001°34'815.2
2017-Aug-10 21:30N 50°17' W 001°26'714.1
2017-Aug-10 21:01N 50°23' W 001°20'1612.7
2017-Aug-10 19:44N 50°36' W 001°04'315.1
2017-Aug-10 19:30N 50°39' W 001°02'714.4
2017-Aug-10 19:00N 50°46' W 001°05'3 6.2
2017-Aug-10 18:31N 50°49' W 001°06'0 0.0
2017-Aug-10 18:01N 50°49' W 001°06'0 0.0
2017-Aug-10 17:31N 50°49' W 001°06'0 0.0
2017-Aug-10 17:00N 50°49' W 001°06'0 0.0
2017-Aug-10 16:31N 50°49' W 001°06'0 0.0
2017-Aug-10 16:01N 50°49' W 001°06'0 0.0
2017-Aug-10 15:31N 50°49' W 001°06'2 3.2
2017-Aug-10 15:01N 50°47' W 001°06'714.3
2017-Aug-10 14:30N 50°40' W 001°04'  
Track history (hours):
 
Tides and Currents Weather Stations Pressure Air Temp Water Temp Dewpoint Dewpoint Depression Visibility Wind Speed Wind Dir Waves Ship Positions

Commodore Goodwill

Operator: Condor Marine Services

Last reported at 2017-Aug-20 13:30 UTC. Time now 2017-Aug-20 13:41 UTC.
Position N 50°49' W 001°06'.

Length 126 m; draft 5 m.

Type: Ship (hazmat cat C). MMSI: 309536000.

Date/timePositionNaut miles runAvg speedWind from/ knotsBaromVisibWave heightAir tempDewpointWater temp
2017-Aug-20 13:30N 50°49' W 001°06'0 0.0
2017-Aug-20 13:00N 50°49' W 001°06'0 0.0
2017-Aug-20 12:31N 50°49' W 001°06'0 0.0
2017-Aug-20 12:01N 50°49' W 001°06'0 0.0
2017-Aug-20 11:31N 50°49' W 001°06'0 0.0
2017-Aug-20 11:01N 50°49' W 001°06'0 0.0
2017-Aug-20 10:31N 50°49' W 001°06'0 0.0
2017-Aug-20 10:00N 50°49' W 001°06'0 0.0
2017-Aug-20 09:30N 50°49' W 001°06'0 0.0
2017-Aug-20 09:00N 50°49' W 001°06'0 0.0
2017-Aug-20 08:30N 50°49' W 001°06'0 0.0
2017-Aug-20 08:00N 50°49' W 001°06'0 0.0
2017-Aug-20 07:31N 50°49' W 001°06'0 0.0
2017-Aug-20 07:00N 50°49' W 001°06'0 0.0
2017-Aug-20 06:30N 50°49' W 001°06'0 0.0
2017-Aug-20 06:00N 50°49' W 001°06'2 4.6
2017-Aug-20 05:31N 50°46' W 001°06'713.1
2017-Aug-20 05:00N 50°41' W 001°01'510.2
2017-Aug-20 04:30N 50°36' W 001°04'4 7.6
2017-Aug-20 04:00N 50°33' W 001°07'5 8.9
2017-Aug-20 03:29N 50°30' W 001°12'32 8.9
2017-Aug-19 23:55N 50°04' W 001°42'4 9.6
2017-Aug-19 23:30N 50°01' W 001°45'510.8
2017-Aug-19 23:00N 49°56' W 001°50'511.0
2017-Aug-19 22:30N 49°52' W 001°54'5 0.2
2017-Aug-18 23:07N 49°48' W 001°59'113.6
2017-Aug-18 23:01N 49°49' W 001°58'714.1
2017-Aug-18 22:30N 49°55' W 001°52'816.2
2017-Aug-18 22:00N 50°02' W 001°45'816.7
2017-Aug-18 21:30N 50°09' W 001°38'2516.0
2017-Aug-18 19:57N 50°29' W 001°15'715.6
2017-Aug-18 19:30N 50°35' W 001°09'815.6
2017-Aug-18 19:00N 50°42' W 001°03'713.8
2017-Aug-18 18:30N 50°48' W 001°07'1 2.0
2017-Aug-18 18:00N 50°49' W 001°06'0 0.0
2017-Aug-18 17:31N 50°49' W 001°06'0 0.0
2017-Aug-18 17:01N 50°49' W 001°06'0 0.0
2017-Aug-18 16:30N 50°49' W 001°06'0 0.0
2017-Aug-18 16:00N 50°49' W 001°06'0 0.0
2017-Aug-18 15:30N 50°49' W 001°06'2 4.0
2017-Aug-18 15:01N 50°47' W 001°06'612.3
2017-Aug-18 14:31N 50°42' W 001°01'1914.6
2017-Aug-18 13:13N 50°26' W 001°17'2815.9
2017-Aug-18 11:26N 50°03' W 001°43'716.2
2017-Aug-18 11:01N 49°57' W 001°49'816.2
2017-Aug-18 10:30N 49°51' W 001°56'4 0.3
2017-Aug-17 23:28N 49°48' W 002°00'817.8
2017-Aug-17 23:00N 49°54' W 001°52'918.6
2017-Aug-17 22:30N 50°03' W 001°45'3618.2
2017-Aug-17 20:33N 50°32' W 001°14'318.6
2017-Aug-17 20:22N 50°35' W 001°10'718.4
2017-Aug-17 20:00N 50°40' W 001°04'714.1
2017-Aug-17 19:31N 50°47' W 001°06'2 3.9
2017-Aug-17 19:01N 50°49' W 001°06'0 0.0
2017-Aug-17 18:31N 50°49' W 001°06'0 0.0
2017-Aug-17 18:01N 50°49' W 001°06'0 0.0
2017-Aug-17 17:30N 50°49' W 001°06'0 0.0
2017-Aug-17 17:00N 50°49' W 001°06'0 0.0
2017-Aug-17 16:30N 50°49' W 001°06'0 0.0
2017-Aug-17 16:00N 50°49' W 001°06'0 0.0
2017-Aug-17 15:30N 50°49' W 001°06'2 4.1
2017-Aug-17 15:00N 50°47' W 001°06'714.4
2017-Aug-17 14:30N 50°40' W 001°05'1219.8
2017-Aug-17 13:55N 50°30' W 001°15'2619.0
2017-Aug-17 12:32N 50°09' W 001°40'118.7
2017-Aug-17 12:28N 50°08' W 001°41'818.4
2017-Aug-17 12:00N 50°01' W 001°49'1018.0
2017-Aug-17 11:26N 49°52' W 001°56'5 0.5
2017-Aug-17 00:25N 49°47' W 001°59'615.7
2017-Aug-17 00:00N 49°52' W 001°53'816.8
2017-Aug-16 23:30N 49°59' W 001°46'917.6
2017-Aug-16 23:01N 50°07' W 001°39'2917.7
2017-Aug-16 21:23N 50°31' W 001°14'718.1
2017-Aug-16 21:00N 50°36' W 001°08'815.8
2017-Aug-16 20:30N 50°44' W 001°04'510.5
2017-Aug-16 20:01N 50°49' W 001°07'1 1.7
2017-Aug-16 19:31N 50°49' W 001°06'0 0.0
2017-Aug-16 19:01N 50°49' W 001°06'0 0.0
2017-Aug-16 18:31N 50°49' W 001°06'0 0.0
2017-Aug-16 18:01N 50°49' W 001°06'0 0.0
2017-Aug-16 17:31N 50°49' W 001°06'0 0.0
2017-Aug-16 17:01N 50°49' W 001°06'1 2.2
2017-Aug-16 16:31N 50°48' W 001°07'714.8
2017-Aug-16 16:01N 50°41' W 001°03'1219.4
2017-Aug-16 15:24N 50°31' W 001°14'1419.5
2017-Aug-16 14:42N 50°20' W 001°26'419.5
2017-Aug-16 14:30N 50°17' W 001°29'1019.7
2017-Aug-16 14:00N 50°09' W 001°37'1020.1
2017-Aug-16 13:30N 50°00' W 001°46'1020.3
2017-Aug-16 13:00N 49°52' W 001°54'1121.3
2017-Aug-16 12:31N 49°43' W 002°04'1920.3
2017-Aug-16 11:33N 49°25' W 002°15'919.4
2017-Aug-16 11:04N 49°16' W 002°20'218.5
2017-Aug-16 10:57N 49°14' W 002°21'715.5
2017-Aug-16 10:30N 49°10' W 002°13'3 0.8
2017-Aug-16 07:03N 49°10' W 002°17'118.4
2017-Aug-16 07:00N 49°10' W 002°18'39 6.3
2017-Aug-16 00:56N 49°47' W 001°60'613.1
2017-Aug-16 00:30N 49°52' W 001°55'714.0
2017-Aug-16 00:00N 49°57' W 001°49'714.7
2017-Aug-15 23:30N 50°03' W 001°42'815.7
2017-Aug-15 23:00N 50°10' W 001°36'1416.2
2017-Aug-15 22:09N 50°22' W 001°25'314.8
2017-Aug-15 21:56N 50°25' W 001°22'715.1
2017-Aug-15 21:30N 50°29' W 001°15'815.8
2017-Aug-15 21:00N 50°36' W 001°08'816.5
2017-Aug-15 20:31N 50°43' W 001°03'611.1
2017-Aug-15 20:00N 50°49' W 001°07'1 1.5
2017-Aug-15 19:30N 50°49' W 001°06'0 0.0
2017-Aug-15 19:00N 50°49' W 001°06'0 0.0
2017-Aug-15 18:30N 50°49' W 001°06'0 0.0
2017-Aug-15 18:00N 50°49' W 001°06'0 0.0
2017-Aug-15 17:30N 50°49' W 001°06'3 5.9
2017-Aug-15 17:01N 50°46' W 001°05'815.0
2017-Aug-15 16:29N 50°38' W 001°06'1017.8
2017-Aug-15 15:55N 50°30' W 001°15'818.5
2017-Aug-15 15:29N 50°23' W 001°22'918.6
2017-Aug-15 15:00N 50°15' W 001°28'1319.2
2017-Aug-15 14:21N 50°04' W 001°39'719.8
2017-Aug-15 14:01N 49°59' W 001°45'1020.3
2017-Aug-15 13:30N 49°51' W 001°55'6 0.4
2017-Aug-14 23:48N 49°46' W 002°01'3 9.5
2017-Aug-14 23:30N 49°49' W 001°58'611.0
2017-Aug-14 23:00N 49°53' W 001°53'713.4
2017-Aug-14 22:30N 49°58' W 001°46'714.0
2017-Aug-14 22:00N 50°02' W 001°38'816.7
2017-Aug-14 21:30N 50°11' W 001°37'816.7
2017-Aug-14 21:01N 50°18' W 001°30'917.3
2017-Aug-14 20:30N 50°24' W 001°21'917.6
2017-Aug-14 20:00N 50°32' W 001°13'918.0
2017-Aug-14 19:30N 50°39' W 001°05'714.6
2017-Aug-14 19:01N 50°46' W 001°06'2 4.9
2017-Aug-14 18:30N 50°49' W 001°06'0 0.0
2017-Aug-14 18:01N 50°49' W 001°06'0 0.0
2017-Aug-14 17:31N 50°49' W 001°06'0 0.0
2017-Aug-14 17:01N 50°49' W 001°06'0 0.0
2017-Aug-14 16:31N 50°49' W 001°06'0 0.0
2017-Aug-14 16:00N 50°49' W 001°06'0 0.0
2017-Aug-14 15:31N 50°49' W 001°06'2 3.2
2017-Aug-14 15:01N 50°47' W 001°07'714.3
2017-Aug-14 14:30N 50°40' W 001°04'815.1
2017-Aug-14 14:00N 50°34' W 001°10'815.3
2017-Aug-14 13:30N 50°27' W 001°16'815.5
2017-Aug-14 13:00N 50°20' W 001°22'917.1
2017-Aug-14 12:30N 50°13' W 001°29'1020.2
2017-Aug-14 12:00N 50°06' W 001°40'1020.6
2017-Aug-14 11:30N 49°57' W 001°49'1021.1
2017-Aug-14 11:00N 49°49' W 001°59'1322.6
2017-Aug-14 10:25N 49°39' W 002°13'820.7
2017-Aug-14 10:00N 49°33' W 002°22'813.1
2017-Aug-14 09:22N 49°27' W 002°32'0 0.0
2017-Aug-14 09:01N 49°27' W 002°32'0 0.1
2017-Aug-14 08:27N 49°27' W 002°32'612.7
2017-Aug-14 08:00N 49°22' W 002°28'917.5
2017-Aug-14 07:28N 49°14' W 002°22'815.0
2017-Aug-14 06:57N 49°10' W 002°12'39 4.5
2017-Aug-13 22:22N 49°48' W 001°59'412.2
2017-Aug-13 22:00N 49°51' W 001°55'612.9
2017-Aug-13 21:31N 49°56' W 001°49'815.5
2017-Aug-13 21:00N 50°03' W 001°43'917.0
2017-Aug-13 20:30N 50°10' W 001°36'1016.9
2017-Aug-13 19:54N 50°19' W 001°27'614.5
2017-Aug-13 19:28N 50°24' W 001°22'613.3
2017-Aug-13 19:00N 50°29' W 001°16'714.0
2017-Aug-13 18:30N 50°35' W 001°10'816.4
2017-Aug-13 18:00N 50°41' W 001°03'714.5
2017-Aug-13 17:30N 50°48' W 001°07'1 2.0
2017-Aug-13 17:00N 50°49' W 001°06'0 0.0
2017-Aug-13 16:30N 50°49' W 001°06'0 0.0
2017-Aug-13 16:00N 50°49' W 001°06'0 0.0
2017-Aug-13 15:30N 50°49' W 001°06'0 0.1
2017-Aug-13 15:00N 50°49' W 001°06'3 6.3
2017-Aug-13 14:31N 50°46' W 001°05'712.9
2017-Aug-13 13:58N 50°39' W 001°08'2 5.1
2017-Aug-13 13:30N 50°36' W 001°08'3911.4
2017-Aug-13 10:06N 50°04' W 001°42'111.3
2017-Aug-13 10:00N 50°03' W 001°43'4 9.0
2017-Aug-13 09:30N 49°59' W 001°46'4 8.4
2017-Aug-13 08:59N 49°56' W 001°50'4 8.4
2017-Aug-13 08:31N 49°53' W 001°54'4 8.3
2017-Aug-13 08:00N 49°49' W 001°58'17 8.7
2017-Aug-13 06:00N 49°34' W 002°10'3 5.8
2017-Aug-13 05:25N 49°31' W 002°12'17 0.6
2017-Aug-11 23:48N 49°47' W 002°01'413.8
2017-Aug-11 23:30N 49°50' W 001°58'714.1
2017-Aug-11 23:00N 49°56' W 001°52'714.5
2017-Aug-11 22:31N 50°02' W 001°48'612.9
2017-Aug-11 22:00N 50°06' W 001°40'713.8
2017-Aug-11 21:30N 50°11' W 001°31'3215.2
2017-Aug-11 19:24N 50°37' W 001°02'614.5
2017-Aug-11 19:00N 50°43' W 001°01'713.5
2017-Aug-11 18:30N 50°48' W 001°07'1 1.9
2017-Aug-11 18:01N 50°49' W 001°06'0 0.0
2017-Aug-11 17:30N 50°49' W 001°06'0 0.0
2017-Aug-11 17:00N 50°49' W 001°06'0 0.0
2017-Aug-11 16:31N 50°49' W 001°06'0 0.0
2017-Aug-11 16:00N 50°49' W 001°06'0 0.0
2017-Aug-11 15:30N 50°49' W 001°06'2 3.3
2017-Aug-11 15:00N 50°47' W 001°06'1111.4
2017-Aug-11 14:00N 50°36' W 001°08'3512.9
2017-Aug-11 11:19N 50°07' W 001°39'515.8
2017-Aug-11 11:00N 50°03' W 001°43'815.9
2017-Aug-11 10:30N 49°56' W 001°49'1019.7
2017-Aug-11 10:00N 49°48' W 001°58'3219.1
2017-Aug-11 08:19N 49°19' W 002°19'9 1.2
2017-Aug-11 01:26N 49°27' W 002°25'2717.4
2017-Aug-10 23:52N 49°48' W 001°60'616.5
2017-Aug-10 23:30N 49°54' W 001°56'816.0
2017-Aug-10 23:00N 50°01' W 001°50'814.8
2017-Aug-10 22:27N 50°07' W 001°41'714.8
2017-Aug-10 22:00N 50°11' W 001°34'815.2
2017-Aug-10 21:30N 50°17' W 001°26'714.1
2017-Aug-10 21:01N 50°23' W 001°20'1612.7
2017-Aug-10 19:44N 50°36' W 001°04'315.1
2017-Aug-10 19:30N 50°39' W 001°02'714.4
2017-Aug-10 19:00N 50°46' W 001°05'3 6.2
2017-Aug-10 18:31N 50°49' W 001°06'0 0.0
2017-Aug-10 18:01N 50°49' W 001°06'0 0.0
2017-Aug-10 17:31N 50°49' W 001°06'0 0.0
2017-Aug-10 17:00N 50°49' W 001°06'0 0.0
2017-Aug-10 16:31N 50°49' W 001°06'0 0.0
2017-Aug-10 16:01N 50°49' W 001°06'0 0.0
2017-Aug-10 15:31N 50°49' W 001°06'2 3.2
2017-Aug-10 15:01N 50°47' W 001°06'714.3
2017-Aug-10 14:30N 50°40' W 001°04'  

Dump ship's entire track history